sensor_id;sensor_type;location;lat;lon;timestamp;P1;durP1;ratioP1;P2;durP2;ratioP2
10347;SDS011;5220;43.192;23.284;2023-03-25T18:14:18;11.00;;;6.72;;
10347;SDS011;5220;43.192;23.284;2023-03-25T18:16:45;10.32;;;5.18;;
10347;SDS011;5220;43.192;23.284;2023-03-25T18:19:12;9.93;;;7.15;;
10347;SDS011;5220;43.192;23.284;2023-03-25T18:21:40;11.70;;;5.38;;
10347;SDS011;5220;43.192;23.284;2023-03-25T18:24:07;7.07;;;4.80;;
10347;SDS011;5220;43.192;23.284;2023-03-25T18:26:35;8.68;;;7.55;;
10347;SDS011;5220;43.192;23.284;2023-03-25T18:29:01;6.53;;;4.60;;
10347;SDS011;5220;43.192;23.284;2023-03-25T18:31:32;7.22;;;4.70;;
10347;SDS011;5220;43.192;23.284;2023-03-25T18:33:58;5.32;;;4.22;;
10347;SDS011;5220;43.192;23.284;2023-03-25T18:36:25;7.00;;;4.20;;
10347;SDS011;5220;43.192;23.284;2023-03-25T18:38:52;7.20;;;4.07;;
10347;SDS011;5220;43.192;23.284;2023-03-25T18:41:19;6.38;;;4.38;;
10347;SDS011;5220;43.192;23.284;2023-03-25T18:43:46;8.90;;;4.60;;
10347;SDS011;5220;43.192;23.284;2023-03-25T18:46:12;7.50;;;4.32;;
10347;SDS011;5220;43.192;23.284;2023-03-25T18:48:41;6.43;;;4.47;;
10347;SDS011;5220;43.192;23.284;2023-03-25T18:51:08;5.65;;;3.75;;
10347;SDS011;5220;43.192;23.284;2023-03-25T18:53:36;5.20;;;3.63;;
10347;SDS011;5220;43.192;23.284;2023-03-25T18:56:03;8.18;;;3.90;;
10347;SDS011;5220;43.192;23.284;2023-03-25T18:58:31;7.40;;;3.75;;
10347;SDS011;5220;43.192;23.284;2023-03-25T19:01:00;5.20;;;4.32;;
10347;SDS011;5220;43.192;23.284;2023-03-25T19:03:28;9.68;;;5.88;;
10347;SDS011;5220;43.192;23.284;2023-03-25T19:05:57;10.65;;;7.97;;
10347;SDS011;5220;43.192;23.284;2023-03-25T19:08:24;12.05;;;7.78;;
10347;SDS011;5220;43.192;23.284;2023-03-25T19:10:52;7.43;;;5.03;;
10347;SDS011;5220;43.192;23.284;2023-03-25T19:13:19;11.23;;;5.00;;
10347;SDS011;5220;43.192;23.284;2023-03-25T19:15:45;8.32;;;5.50;;
10347;SDS011;5220;43.192;23.284;2023-03-25T19:18:12;9.70;;;4.97;;
10347;SDS011;5220;43.192;23.284;2023-03-25T19:20:43;18.90;;;8.50;;
10347;SDS011;5220;43.192;23.284;2023-03-25T19:23:13;13.23;;;9.82;;
10347;SDS011;5220;43.192;23.284;2023-03-25T19:25:41;10.93;;;8.45;;
10347;SDS011;5220;43.192;23.284;2023-03-25T19:28:09;9.55;;;7.82;;
10347;SDS011;5220;43.192;23.284;2023-03-25T19:30:35;8.05;;;4.72;;
10347;SDS011;5220;43.192;23.284;2023-03-25T19:33:02;7.47;;;4.78;;
10347;SDS011;5220;43.192;23.284;2023-03-25T19:35:30;5.97;;;4.70;;
10347;SDS011;5220;43.192;23.284;2023-03-25T19:37:57;4.13;;;3.63;;
10347;SDS011;5220;43.192;23.284;2023-03-25T19:40:29;7.43;;;4.50;;
10347;SDS011;5220;43.192;23.284;2023-03-25T19:42:57;6.57;;;5.28;;
10347;SDS011;5220;43.192;23.284;2023-03-25T19:45:25;6.97;;;5.43;;
10347;SDS011;5220;43.192;23.284;2023-03-25T19:47:53;8.52;;;7.18;;
10347;SDS011;5220;43.192;23.284;2023-03-25T19:50:21;8.50;;;6.40;;
10347;SDS011;5220;43.192;23.284;2023-03-25T19:52:50;11.10;;;5.90;;
10347;SDS011;5220;43.192;23.284;2023-03-25T19:55:18;6.13;;;3.88;;
10347;SDS011;5220;43.192;23.284;2023-03-25T19:57:47;5.00;;;4.50;;
10347;SDS011;5220;43.192;23.284;2023-03-25T20:00:16;9.65;;;4.82;;
10347;SDS011;5220;43.192;23.284;2023-03-25T20:02:45;8.52;;;6.40;;
10347;SDS011;5220;43.192;23.284;2023-03-25T20:05:14;12.13;;;9.20;;
10347;SDS011;5220;43.192;23.284;2023-03-25T20:07:42;17.85;;;11.75;;
10347;SDS011;5220;43.192;23.284;2023-03-25T20:10:11;13.50;;;8.00;;
10347;SDS011;5220;43.192;23.284;2023-03-25T20:12:39;18.88;;;8.45;;
10347;SDS011;5220;43.192;23.284;2023-03-25T20:15:08;42.72;;;16.73;;
10347;SDS011;5220;43.192;23.284;2023-03-25T20:17:36;29.17;;;17.95;;
10347;SDS011;5220;43.192;23.284;2023-03-25T20:20:03;22.58;;;14.95;;
10347;SDS011;5220;43.192;23.284;2023-03-25T20:22:32;24.00;;;14.02;;
10347;SDS011;5220;43.192;23.284;2023-03-25T20:25:00;16.83;;;11.10;;
10347;SDS011;5220;43.192;23.284;2023-03-25T20:27:27;16.15;;;11.30;;
10347;SDS011;5220;43.192;23.284;2023-03-25T20:29:54;14.50;;;11.52;;
10347;SDS011;5220;43.192;23.284;2023-03-25T20:32:22;19.63;;;14.45;;
10347;SDS011;5220;43.192;23.284;2023-03-25T20:34:49;17.42;;;12.70;;
10347;SDS011;5220;43.192;23.284;2023-03-25T20:37:16;15.48;;;11.52;;
10347;SDS011;5220;43.192;23.284;2023-03-25T20:39:43;20.48;;;15.65;;
10347;SDS011;5220;43.192;23.284;2023-03-25T20:42:10;11.95;;;9.65;;
10347;SDS011;5220;43.192;23.284;2023-03-25T20:44:37;17.75;;;13.50;;
10347;SDS011;5220;43.192;23.284;2023-03-25T20:47:04;14.50;;;11.95;;
10347;SDS011;5220;43.192;23.284;2023-03-25T20:49:33;17.20;;;13.07;;
10347;SDS011;5220;43.192;23.284;2023-03-25T20:52:02;19.45;;;11.75;;
10347;SDS011;5220;43.192;23.284;2023-03-25T20:54:29;13.98;;;10.02;;
10347;SDS011;5220;43.192;23.284;2023-03-25T20:56:56;14.18;;;8.27;;
10347;SDS011;5220;43.192;23.284;2023-03-25T20:59:23;12.80;;;7.95;;
10347;SDS011;5220;43.192;23.284;2023-03-25T21:01:49;10.82;;;7.60;;
10347;SDS011;5220;43.192;23.284;2023-03-25T21:04:18;10.18;;;7.32;;
10347;SDS011;5220;43.192;23.284;2023-03-25T21:06:46;10.95;;;8.48;;
10347;SDS011;5220;43.192;23.284;2023-03-25T21:09:13;11.23;;;8.35;;
10347;SDS011;5220;43.192;23.284;2023-03-25T21:11:40;14.80;;;12.70;;
10347;SDS011;5220;43.192;23.284;2023-03-25T21:14:08;16.05;;;12.70;;
10347;SDS011;5220;43.192;23.284;2023-03-25T21:16:36;17.85;;;12.80;;
10347;SDS011;5220;43.192;23.284;2023-03-25T21:19:03;14.02;;;11.88;;
10347;SDS011;5220;43.192;23.284;2023-03-25T21:21:32;11.98;;;10.38;;
10347;SDS011;5220;43.192;23.284;2023-03-25T21:24:01;20.35;;;16.05;;
10347;SDS011;5220;43.192;23.284;2023-03-25T21:26:30;15.20;;;12.30;;
10347;SDS011;5220;43.192;23.284;2023-03-25T21:28:57;15.50;;;11.93;;
10347;SDS011;5220;43.192;23.284;2023-03-25T21:31:25;13.52;;;12.07;;
10347;SDS011;5220;43.192;23.284;2023-03-25T21:33:53;10.80;;;9.45;;
10347;SDS011;5220;43.192;23.284;2023-03-25T21:36:22;16.08;;;12.10;;
10347;SDS011;5220;43.192;23.284;2023-03-25T21:38:52;9.93;;;7.43;;
10347;SDS011;5220;43.192;23.284;2023-03-25T21:41:21;7.80;;;6.47;;
10347;SDS011;5220;43.192;23.284;2023-03-25T21:43:48;8.82;;;7.57;;
10347;SDS011;5220;43.192;23.284;2023-03-25T21:46:16;11.00;;;7.75;;
10347;SDS011;5220;43.192;23.284;2023-03-25T21:48:43;9.15;;;7.10;;
10347;SDS011;5220;43.192;23.284;2023-03-25T21:51:12;6.65;;;6.03;;
10347;SDS011;5220;43.192;23.284;2023-03-25T21:53:39;5.75;;;5.15;;
10347;SDS011;5220;43.192;23.284;2023-03-25T21:56:09;7.45;;;5.22;;
10347;SDS011;5220;43.192;23.284;2023-03-25T21:58:40;6.25;;;5.10;;
10347;SDS011;5220;43.192;23.284;2023-03-25T22:01:07;10.15;;;7.57;;
10347;SDS011;5220;43.192;23.284;2023-03-25T22:03:36;10.43;;;7.65;;
10347;SDS011;5220;43.192;23.284;2023-03-25T22:06:09;10.35;;;7.90;;
10347;SDS011;5220;43.192;23.284;2023-03-25T22:08:38;8.68;;;7.50;;
10347;SDS011;5220;43.192;23.284;2023-03-25T22:11:05;13.98;;;10.80;;
10347;SDS011;5220;43.192;23.284;2023-03-25T22:13:33;20.95;;;13.60;;
10347;SDS011;5220;43.192;23.284;2023-03-25T22:16:02;16.58;;;12.30;;
10347;SDS011;5220;43.192;23.284;2023-03-25T22:18:29;10.55;;;8.02;;
10347;SDS011;5220;43.192;23.284;2023-03-25T22:21:03;11.35;;;7.97;;
10347;SDS011;5220;43.192;23.284;2023-03-25T22:23:31;9.23;;;7.63;;
10347;SDS011;5220;43.192;23.284;2023-03-25T22:25:59;8.43;;;7.30;;
10347;SDS011;5220;43.192;23.284;2023-03-25T22:28:26;6.70;;;5.82;;
10347;SDS011;5220;43.192;23.284;2023-03-25T22:30:52;6.30;;;4.97;;
10347;SDS011;5220;43.192;23.284;2023-03-25T22:33:21;6.38;;;4.70;;
10347;SDS011;5220;43.192;23.284;2023-03-25T22:35:47;6.45;;;5.85;;
10347;SDS011;5220;43.192;23.284;2023-03-25T22:38:16;7.00;;;6.30;;
10347;SDS011;5220;43.192;23.284;2023-03-25T22:40:43;7.68;;;6.93;;
10347;SDS011;5220;43.192;23.284;2023-03-25T22:43:10;7.80;;;6.95;;
10347;SDS011;5220;43.192;23.284;2023-03-25T22:45:36;7.43;;;6.72;;
10347;SDS011;5220;43.192;23.284;2023-03-25T22:48:03;9.23;;;7.28;;
10347;SDS011;5220;43.192;23.284;2023-03-25T22:50:32;12.98;;;8.88;;
10347;SDS011;5220;43.192;23.284;2023-03-25T22:52:59;11.27;;;8.75;;
10347;SDS011;5220;43.192;23.284;2023-03-25T22:55:26;8.63;;;6.95;;
10347;SDS011;5220;43.192;23.284;2023-03-25T22:57:53;7.75;;;6.00;;
10347;SDS011;5220;43.192;23.284;2023-03-25T23:00:19;8.82;;;6.47;;
10347;SDS011;5220;43.192;23.284;2023-03-25T23:02:50;8.00;;;6.43;;
10347;SDS011;5220;43.192;23.284;2023-03-25T23:05:17;8.40;;;5.97;;
10347;SDS011;5220;43.192;23.284;2023-03-25T23:07:45;6.75;;;6.03;;
10347;SDS011;5220;43.192;23.284;2023-03-25T23:10:12;8.25;;;6.32;;
10347;SDS011;5220;43.192;23.284;2023-03-25T23:12:40;7.43;;;5.97;;
10347;SDS011;5220;43.192;23.284;2023-03-25T23:15:07;9.02;;;6.47;;
10347;SDS011;5220;43.192;23.284;2023-03-25T23:17:34;9.85;;;7.22;;
10347;SDS011;5220;43.192;23.284;2023-03-25T23:20:01;7.22;;;5.70;;
10347;SDS011;5220;43.192;23.284;2023-03-25T23:22:31;9.80;;;6.53;;
10347;SDS011;5220;43.192;23.284;2023-03-25T23:24:59;10.20;;;8.32;;
10347;SDS011;5220;43.192;23.284;2023-03-25T23:27:28;6.47;;;5.70;;
10347;SDS011;5220;43.192;23.284;2023-03-25T23:29:55;6.85;;;5.10;;
10347;SDS011;5220;43.192;23.284;2023-03-25T23:32:23;10.75;;;7.03;;
10347;SDS011;5220;43.192;23.284;2023-03-25T23:34:50;7.60;;;6.68;;
10347;SDS011;5220;43.192;23.284;2023-03-25T23:37:18;6.78;;;5.43;;
10347;SDS011;5220;43.192;23.284;2023-03-25T23:39:45;5.80;;;3.75;;
10347;SDS011;5220;43.192;23.284;2023-03-25T23:42:13;4.40;;;3.95;;
10347;SDS011;5220;43.192;23.284;2023-03-25T23:44:40;4.20;;;3.80;;
10347;SDS011;5220;43.192;23.284;2023-03-25T23:47:07;4.80;;;3.63;;
10347;SDS011;5220;43.192;23.284;2023-03-25T23:49:34;3.78;;;3.40;;
10347;SDS011;5220;43.192;23.284;2023-03-25T23:52:02;4.75;;;3.63;;
10347;SDS011;5220;43.192;23.284;2023-03-25T23:54:29;3.72;;;3.38;;
10347;SDS011;5220;43.192;23.284;2023-03-25T23:56:56;4.40;;;3.55;;
10347;SDS011;5220;43.192;23.284;2023-03-25T23:59:24;3.67;;;3.00;;
